sensor_id;sensor_type;location;lat;lon;timestamp;pressure;altitude;pressure_sealevel;temperature;humidity
63439;BME280;49567;48.958;8.294;2022-11-20T00:01:37;99958.69;;;7.67;80.56
63439;BME280;49567;48.958;8.294;2022-11-20T00:04:02;99961.13;;;7.68;80.45
63439;BME280;49567;48.958;8.294;2022-11-20T00:06:28;99964.88;;;7.67;80.62
63439;BME280;49567;48.958;8.294;2022-11-20T00:08:55;99964.66;;;7.69;80.87
63439;BME280;49567;48.958;8.294;2022-11-20T00:11:23;99973.09;;;7.72;80.37
63439;BME280;49567;48.958;8.294;2022-11-20T00:13:51;99971.56;;;7.76;80.84
63439;BME280;49567;48.958;8.294;2022-11-20T00:16:19;99961.13;;;7.80;80.20
63439;BME280;49567;48.958;8.294;2022-11-20T00:18:45;99968.25;;;7.74;80.92
63439;BME280;49567;48.958;8.294;2022-11-20T00:21:13;99966.16;;;7.76;80.83
63439;BME280;49567;48.958;8.294;2022-11-20T00:23:38;99962.16;;;7.79;80.52
63439;BME280;49567;48.958;8.294;2022-11-20T00:26:09;99972.25;;;7.83;80.75
63439;BME280;49567;48.958;8.294;2022-11-20T00:28:36;99967.00;;;7.77;80.59
63439;BME280;49567;48.958;8.294;2022-11-20T00:33:27;99965.69;;;7.79;80.88
63439;BME280;49567;48.958;8.294;2022-11-20T00:35:53;99956.78;;;7.79;80.62
63439;BME280;49567;48.958;8.294;2022-11-20T00:38:18;99966.25;;;7.81;80.61
63439;BME280;49567;48.958;8.294;2022-11-20T00:40:43;99968.03;;;7.76;80.55
63439;BME280;49567;48.958;8.294;2022-11-20T00:43:08;99966.50;;;7.80;80.64
63439;BME280;49567;48.958;8.294;2022-11-20T00:45:34;99960.63;;;7.83;81.12
63439;BME280;49567;48.958;8.294;2022-11-20T00:47:59;99968.00;;;7.88;80.81
63439;BME280;49567;48.958;8.294;2022-11-20T00:50:24;99962.59;;;7.88;80.88
63439;BME280;49567;48.958;8.294;2022-11-20T00:52:50;99958.63;;;7.90;81.12
63439;BME280;49567;48.958;8.294;2022-11-20T00:55:15;99952.41;;;7.90;80.80
63439;BME280;49567;48.958;8.294;2022-11-20T00:57:40;99962.84;;;7.86;81.11
63439;BME280;49567;48.958;8.294;2022-11-20T01:00:06;99958.75;;;7.83;81.58
63439;BME280;49567;48.958;8.294;2022-11-20T01:02:31;99959.00;;;7.82;81.08
63439;BME280;49567;48.958;8.294;2022-11-20T01:04:56;99962.50;;;7.82;81.67
63439;BME280;49567;48.958;8.294;2022-11-20T01:07:22;99962.25;;;7.84;81.43
63439;BME280;49567;48.958;8.294;2022-11-20T01:09:47;99965.44;;;7.81;81.41
63439;BME280;49567;48.958;8.294;2022-11-20T01:12:12;99966.50;;;7.80;81.79
63439;BME280;49567;48.958;8.294;2022-11-20T01:14:37;99957.69;;;7.84;81.34
63439;BME280;49567;48.958;8.294;2022-11-20T01:17:03;99957.47;;;7.86;81.13
63439;BME280;49567;48.958;8.294;2022-11-20T01:19:28;99960.50;;;7.90;80.93
63439;BME280;49567;48.958;8.294;2022-11-20T01:21:54;99956.97;;;7.89;81.27
63439;BME280;49567;48.958;8.294;2022-11-20T01:24:21;99958.03;;;7.88;81.20
63439;BME280;49567;48.958;8.294;2022-11-20T01:26:49;99960.38;;;7.84;81.47
63439;BME280;49567;48.958;8.294;2022-11-20T01:29:16;99956.28;;;7.82;81.78
63439;BME280;49567;48.958;8.294;2022-11-20T01:31:42;99961.56;;;7.89;81.93
63439;BME280;49567;48.958;8.294;2022-11-20T01:34:14;99958.03;;;7.88;81.83
63439;BME280;49567;48.958;8.294;2022-11-20T01:36:41;99955.31;;;7.88;82.01
63439;BME280;49567;48.958;8.294;2022-11-20T01:39:14;99956.06;;;7.83;81.84
63439;BME280;49567;48.958;8.294;2022-11-20T01:41:40;99944.69;;;7.81;82.10
63439;BME280;49567;48.958;8.294;2022-11-20T01:44:56;99948.28;;;7.87;82.17
63439;BME280;49567;48.958;8.294;2022-11-20T01:50:09;99945.38;;;7.89;82.01
63439;BME280;49567;48.958;8.294;2022-11-20T01:52:41;99938.31;;;7.88;82.65
63439;BME280;49567;48.958;8.294;2022-11-20T01:55:12;99937.03;;;7.90;82.78
63439;BME280;49567;48.958;8.294;2022-11-20T01:57:40;99936.31;;;7.95;82.82
63439;BME280;49567;48.958;8.294;2022-11-20T02:00:08;99934.19;;;7.97;82.76
63439;BME280;49567;48.958;8.294;2022-11-20T02:02:36;99937.22;;;8.00;83.11
63439;BME280;49567;48.958;8.294;2022-11-20T02:05:12;99945.41;;;8.05;83.17
63439;BME280;49567;48.958;8.294;2022-11-20T02:07:40;99945.41;;;8.05;83.26
63439;BME280;49567;48.958;8.294;2022-11-20T02:10:06;99940.59;;;8.07;83.48
63439;BME280;49567;48.958;8.294;2022-11-20T02:12:32;99943.88;;;8.09;83.55
63439;BME280;49567;48.958;8.294;2022-11-20T02:15:16;99949.97;;;8.16;83.54
63439;BME280;49567;48.958;8.294;2022-11-20T02:17:41;99951.59;;;8.17;83.48
63439;BME280;49567;48.958;8.294;2022-11-20T02:20:07;99940.56;;;8.19;84.08
63439;BME280;49567;48.958;8.294;2022-11-20T02:22:38;99947.34;;;8.21;83.95
63439;BME280;49567;48.958;8.294;2022-11-20T02:25:07;99946.03;;;8.24;83.89
63439;BME280;49567;48.958;8.294;2022-11-20T02:27:34;99944.16;;;8.24;83.95
63439;BME280;49567;48.958;8.294;2022-11-20T02:30:05;99948.06;;;8.28;83.76
63439;BME280;49567;48.958;8.294;2022-11-20T02:32:36;99950.03;;;8.33;83.89
63439;BME280;49567;48.958;8.294;2022-11-20T02:37:34;99950.69;;;8.40;83.59
63439;BME280;49567;48.958;8.294;2022-11-20T02:40:01;99948.81;;;8.41;83.49
63439;BME280;49567;48.958;8.294;2022-11-20T02:42:27;99951.50;;;8.41;83.74
63439;BME280;49567;48.958;8.294;2022-11-20T02:44:52;99943.16;;;8.42;83.74
63439;BME280;49567;48.958;8.294;2022-11-20T02:47:17;99948.81;;;8.41;83.18
63439;BME280;49567;48.958;8.294;2022-11-20T02:49:43;99950.19;;;8.43;83.25
63439;BME280;49567;48.958;8.294;2022-11-20T02:52:08;99943.50;;;8.46;83.47
63439;BME280;49567;48.958;8.294;2022-11-20T02:54:33;99940.53;;;8.47;83.33
63439;BME280;49567;48.958;8.294;2022-11-20T02:56:59;99945.13;;;8.47;83.52
63439;BME280;49567;48.958;8.294;2022-11-20T02:59:24;99932.69;;;8.46;83.52
63439;BME280;49567;48.958;8.294;2022-11-20T03:01:49;99934.91;;;8.49;83.63
63439;BME280;49567;48.958;8.294;2022-11-20T03:04:15;99933.94;;;8.55;83.20
63439;BME280;49567;48.958;8.294;2022-11-20T03:06:40;99935.75;;;8.49;82.99
63439;BME280;49567;48.958;8.294;2022-11-20T03:09:05;99931.72;;;8.52;83.32
63439;BME280;49567;48.958;8.294;2022-11-20T03:11:31;99940.88;;;8.51;83.34
63439;BME280;49567;48.958;8.294;2022-11-20T03:13:56;99937.13;;;8.52;83.09
63439;BME280;49567;48.958;8.294;2022-11-20T03:16:23;99939.66;;;8.58;82.77
63439;BME280;49567;48.958;8.294;2022-11-20T03:18:49;99936.16;;;8.58;82.79
63439;BME280;49567;48.958;8.294;2022-11-20T03:21:16;99937.53;;;8.60;82.68
63439;BME280;49567;48.958;8.294;2022-11-20T03:23:42;99939.41;;;8.60;82.24
63439;BME280;49567;48.958;8.294;2022-11-20T03:26:15;99940.22;;;8.60;82.48
63439;BME280;49567;48.958;8.294;2022-11-20T03:28:45;99935.66;;;8.61;82.37
63439;BME280;49567;48.958;8.294;2022-11-20T03:31:13;99932.38;;;8.59;82.33
63439;BME280;49567;48.958;8.294;2022-11-20T03:33:40;99937.19;;;8.57;82.16
63439;BME280;49567;48.958;8.294;2022-11-20T03:36:08;99931.06;;;8.61;81.76
63439;BME280;49567;48.958;8.294;2022-11-20T03:38:34;99933.50;;;8.63;82.05
63439;BME280;49567;48.958;8.294;2022-11-20T03:41:01;99928.28;;;8.56;81.67
63439;BME280;49567;48.958;8.294;2022-11-20T03:43:27;99925.41;;;8.63;81.85
63439;BME280;49567;48.958;8.294;2022-11-20T03:45:53;99931.47;;;8.70;81.32
63439;BME280;49567;48.958;8.294;2022-11-20T03:48:18;99937.38;;;8.67;81.31
63439;BME280;49567;48.958;8.294;2022-11-20T03:50:43;99931.97;;;8.67;80.99
63439;BME280;49567;48.958;8.294;2022-11-20T03:53:08;99928.72;;;8.65;81.52
63439;BME280;49567;48.958;8.294;2022-11-20T03:55:34;99932.47;;;8.64;81.33
63439;BME280;49567;48.958;8.294;2022-11-20T03:57:59;99926.50;;;8.62;81.21
63439;BME280;49567;48.958;8.294;2022-11-20T04:00:24;99924.63;;;8.62;81.07
63439;BME280;49567;48.958;8.294;2022-11-20T04:02:50;99925.41;;;8.63;81.17
63439;BME280;49567;48.958;8.294;2022-11-20T04:05:15;99930.19;;;8.72;80.61
63439;BME280;49567;48.958;8.294;2022-11-20T04:07:40;99935.91;;;8.76;80.39
63439;BME280;49567;48.958;8.294;2022-11-20T04:10:06;99927.78;;;8.76;80.74
63439;BME280;49567;48.958;8.294;2022-11-20T04:12:32;99925.91;;;8.76;80.76
63439;BME280;49567;48.958;8.294;2022-11-20T04:14:58;99919.94;;;8.74;80.20
63439;BME280;49567;48.958;8.294;2022-11-20T04:17:23;99919.44;;;8.77;80.51
63439;BME280;49567;48.958;8.294;2022-11-20T04:19:49;99920.28;;;8.78;80.32
63439;BME280;49567;48.958;8.294;2022-11-20T04:22:14;99923.53;;;8.80;80.26
63439;BME280;49567;48.958;8.294;2022-11-20T04:24:39;99922.22;;;8.82;80.39
63439;BME280;49567;48.958;8.294;2022-11-20T04:27:04;99922.53;;;8.86;79.85
63439;BME280;49567;48.958;8.294;2022-11-20T04:29:30;99923.38;;;8.86;79.86
63439;BME280;49567;48.958;8.294;2022-11-20T04:31:55;99926.41;;;8.90;79.97
63439;BME280;49567;48.958;8.294;2022-11-20T04:34:20;99922.38;;;8.93;79.88
63439;BME280;49567;48.958;8.294;2022-11-20T04:36:46;99919.84;;;8.86;79.92
63439;BME280;49567;48.958;8.294;2022-11-20T04:39:12;99919.84;;;8.86;79.92
63439;BME280;49567;48.958;8.294;2022-11-20T04:41:39;99918.28;;;8.90;79.86
63439;BME280;49567;48.958;8.294;2022-11-20T04:44:05;99917.72;;;8.88;79.77
63439;BME280;49567;48.958;8.294;2022-11-20T04:46:36;99913.31;;;8.82;80.23
63439;BME280;49567;48.958;8.294;2022-11-20T04:49:02;99918.72;;;8.82;80.02
63439;BME280;49567;48.958;8.294;2022-11-20T04:51:28;99921.66;;;8.80;80.32
63439;BME280;49567;48.958;8.294;2022-11-20T04:53:53;99917.31;;;8.79;80.14
63439;BME280;49567;48.958;8.294;2022-11-20T04:56:19;99917.56;;;8.78;79.79
63439;BME280;49567;48.958;8.294;2022-11-20T04:58:44;99913.22;;;8.77;80.21
63439;BME280;49567;48.958;8.294;2022-11-20T05:01:12;99918.41;;;8.78;80.17
63439;BME280;49567;48.958;8.294;2022-11-20T05:03:41;99912.06;;;8.73;80.47
63439;BME280;49567;48.958;8.294;2022-11-20T05:06:07;99915.03;;;8.71;80.22
63439;BME280;49567;48.958;8.294;2022-11-20T05:08:33;99915.28;;;8.70;80.48
63439;BME280;49567;48.958;8.294;2022-11-20T05:11:04;99918.56;;;8.72;80.36
63439;BME280;49567;48.958;8.294;2022-11-20T05:13:29;99919.38;;;8.72;80.18
63439;BME280;49567;48.958;8.294;2022-11-20T05:15:55;99913.72;;;8.74;80.17
63439;BME280;49567;48.958;8.294;2022-11-20T05:18:20;99912.00;;;8.68;80.54
63439;BME280;49567;48.958;8.294;2022-11-20T05:20:45;99907.44;;;8.68;80.24
63439;BME280;49567;48.958;8.294;2022-11-20T05:23:11;99900.16;;;8.69;80.15
63439;BME280;49567;48.958;8.294;2022-11-20T05:25:36;99911.19;;;8.67;80.62
63439;BME280;49567;48.958;8.294;2022-11-20T05:28:01;99901.44;;;8.66;80.57
63439;BME280;49567;48.958;8.294;2022-11-20T05:30:27;99907.66;;;8.67;80.08
63439;BME280;49567;48.958;8.294;2022-11-20T05:32:52;99910.63;;;8.65;80.12
63439;BME280;49567;48.958;8.294;2022-11-20T05:35:17;99911.28;;;8.72;80.16
63439;BME280;49567;48.958;8.294;2022-11-20T05:37:42;99901.25;;;8.73;79.82
63439;BME280;49567;48.958;8.294;2022-11-20T05:40:08;99895.63;;;8.74;80.11
63439;BME280;49567;48.958;8.294;2022-11-20T05:42:34;99901.53;;;8.71;80.01
63439;BME280;49567;48.958;8.294;2022-11-20T05:45:04;99896.13;;;8.71;79.72
63439;BME280;49567;48.958;8.294;2022-11-20T05:47:33;99897.19;;;8.70;79.91
63439;BME280;49567;48.958;8.294;2022-11-20T05:50:00;99908.00;;;8.70;79.75
63439;BME280;49567;48.958;8.294;2022-11-20T05:52:28;99899.06;;;8.70;79.64
63439;BME280;49567;48.958;8.294;2022-11-20T05:54:54;99902.59;;;8.70;79.62
63439;BME280;49567;48.958;8.294;2022-11-20T05:57:19;99897.19;;;8.70;79.49
63439;BME280;49567;48.958;8.294;2022-11-20T05:59:44;99904.22;;;8.71;79.44
63439;BME280;49567;48.958;8.294;2022-11-20T06:02:10;99900.38;;;8.67;79.33
63439;BME280;49567;48.958;8.294;2022-11-20T06:04:35;99897.94;;;8.66;79.44
63439;BME280;49567;48.958;8.294;2022-11-20T06:07:00;99906.59;;;8.68;79.75
63439;BME280;49567;48.958;8.294;2022-11-20T06:09:26;99893.91;;;8.68;79.72
63439;BME280;49567;48.958;8.294;2022-11-20T06:11:51;99900.72;;;8.71;79.66
63439;BME280;49567;48.958;8.294;2022-11-20T06:14:16;99896.84;;;8.67;79.95
63439;BME280;49567;48.958;8.294;2022-11-20T06:16:42;99899.06;;;8.70;79.54
63439;BME280;49567;48.958;8.294;2022-11-20T06:19:07;99900.16;;;8.69;79.81
63439;BME280;49567;48.958;8.294;2022-11-20T06:21:32;99899.66;;;8.72;79.95
63439;BME280;49567;48.958;8.294;2022-11-20T06:23:57;99904.56;;;8.75;79.61
63439;BME280;49567;48.958;8.294;2022-11-20T06:26:25;99901.53;;;8.71;79.58
63439;BME280;49567;48.958;8.294;2022-11-20T06:28:51;99902.34;;;8.72;79.23
63439;BME280;49567;48.958;8.294;2022-11-20T06:31:19;99899.97;;;8.75;79.49
63439;BME280;49567;48.958;8.294;2022-11-20T06:33:45;99909.13;;;8.74;79.56
63439;BME280;49567;48.958;8.294;2022-11-20T06:36:13;99907.50;;;8.73;79.39
63439;BME280;49567;48.958;8.294;2022-11-20T06:38:39;99904.28;;;8.76;79.55
63439;BME280;49567;48.958;8.294;2022-11-20T06:41:14;99907.16;;;8.70;79.65
63439;BME280;49567;48.958;8.294;2022-11-20T06:43:40;99904.78;;;8.73;79.70
63439;BME280;49567;48.958;8.294;2022-11-20T06:46:05;99908.09;;;8.75;79.47
63439;BME280;49567;48.958;8.294;2022-11-20T06:48:31;99913.97;;;8.72;79.56
63439;BME280;49567;48.958;8.294;2022-11-20T06:50:57;99913.00;;;8.62;80.26
63439;BME280;49567;48.958;8.294;2022-11-20T06:53:22;99914.53;;;8.58;80.61
63439;BME280;49567;48.958;8.294;2022-11-20T06:55:48;99922.41;;;8.59;80.40
63439;BME280;49567;48.958;8.294;2022-11-20T06:58:15;99921.59;;;8.59;80.37
63439;BME280;49567;48.958;8.294;2022-11-20T07:00:41;99916.19;;;8.59;80.73
63439;BME280;49567;48.958;8.294;2022-11-20T07:03:08;99927.00;;;8.59;80.75
63439;BME280;49567;48.958;8.294;2022-11-20T07:05:34;99934.00;;;8.60;80.58
63439;BME280;49567;48.958;8.294;2022-11-20T07:07:59;99927.81;;;8.59;80.73
63439;BME280;49567;48.958;8.294;2022-11-20T07:10:25;99934.28;;;8.58;80.88
63439;BME280;49567;48.958;8.294;2022-11-20T07:12:51;99927.81;;;8.59;80.55
63439;BME280;49567;48.958;8.294;2022-11-20T07:15:18;99935.66;;;8.61;81.01
63439;BME280;49567;48.958;8.294;2022-11-20T07:17:43;99936.72;;;8.60;80.97
63439;BME280;49567;48.958;8.294;2022-11-20T07:20:09;99934.00;;;8.60;80.77
63439;BME280;49567;48.958;8.294;2022-11-20T07:22:34;99939.19;;;8.61;80.60
63439;BME280;49567;48.958;8.294;2022-11-20T07:25:00;99942.09;;;8.60;81.23
63439;BME280;49567;48.958;8.294;2022-11-20T07:27:26;99932.47;;;8.64;80.92
63439;BME280;49567;48.958;8.294;2022-11-20T07:29:52;99942.22;;;8.65;80.85
63439;BME280;49567;48.958;8.294;2022-11-20T07:32:17;99947.63;;;8.65;81.00
63439;BME280;49567;48.958;8.294;2022-11-20T07:34:42;99947.63;;;8.65;81.25
63439;BME280;49567;48.958;8.294;2022-11-20T07:37:07;99945.75;;;8.65;81.19
63439;BME280;49567;48.958;8.294;2022-11-20T07:39:33;99943.53;;;8.62;81.31
63439;BME280;49567;48.958;8.294;2022-11-20T07:41:58;99942.22;;;8.65;81.48
63439;BME280;49567;48.958;8.294;2022-11-20T07:44:23;99953.59;;;8.67;81.39
63439;BME280;49567;48.958;8.294;2022-11-20T07:46:49;99952.53;;;8.68;81.23
63439;BME280;49567;48.958;8.294;2022-11-20T07:49:14;99960.38;;;8.69;81.29
63439;BME280;49567;48.958;8.294;2022-11-20T07:51:39;99953.34;;;8.68;81.32
63439;BME280;49567;48.958;8.294;2022-11-20T07:54:04;99956.53;;;8.65;81.50
63439;BME280;49567;48.958;8.294;2022-11-20T07:56:30;99954.06;;;8.64;81.97
63439;BME280;49567;48.958;8.294;2022-11-20T07:58:55;99959.72;;;8.62;82.44
63439;BME280;49567;48.958;8.294;2022-11-20T08:01:20;99952.53;;;8.68;82.02
63439;BME280;49567;48.958;8.294;2022-11-20T08:03:46;99961.19;;;8.70;82.48
63439;BME280;49567;48.958;8.294;2022-11-20T08:06:11;99957.94;;;8.68;83.01
63439;BME280;49567;48.958;8.294;2022-11-20T08:08:36;99960.53;;;8.63;83.54
63439;BME280;49567;48.958;8.294;2022-11-20T08:11:01;99966.53;;;8.65;83.24
63439;BME280;49567;48.958;8.294;2022-11-20T08:13:45;99973.56;;;8.66;83.59
63439;BME280;49567;48.958;8.294;2022-11-20T08:16:29;99964.88;;;8.64;83.67
63439;BME280;49567;48.958;8.294;2022-11-20T08:18:55;99973.56;;;8.66;83.88
63439;BME280;49567;48.958;8.294;2022-11-20T08:21:20;99979.19;;;8.64;83.98
63439;BME280;49567;48.958;8.294;2022-11-20T08:23:45;99984.03;;;8.62;84.08
63439;BME280;49567;48.958;8.294;2022-11-20T08:26:11;99984.84;;;8.63;84.25
63439;BME280;49567;48.958;8.294;2022-11-20T08:28:36;99985.09;;;8.61;84.53
63439;BME280;49567;48.958;8.294;2022-11-20T08:31:02;99980.03;;;8.65;84.47
63439;BME280;49567;48.958;8.294;2022-11-20T08:33:28;99988.13;;;8.65;84.02
63439;BME280;49567;48.958;8.294;2022-11-20T08:35:53;99990.34;;;8.68;84.15
63439;BME280;49567;48.958;8.294;2022-11-20T08:38:22;99999.84;;;8.70;84.28
63439;BME280;49567;48.958;8.294;2022-11-20T08:40:48;100001.00;;;8.74;84.18
63439;BME280;49567;48.958;8.294;2022-11-20T08:43:33;99998.28;;;8.74;84.45
63439;BME280;49567;48.958;8.294;2022-11-20T08:45:58;99999.44;;;8.78;84.39
63439;BME280;49567;48.958;8.294;2022-11-20T08:48:23;99995.16;;;8.82;83.92
63439;BME280;49567;48.958;8.294;2022-11-20T08:50:49;100000.44;;;8.89;84.04
63439;BME280;49567;48.958;8.294;2022-11-20T08:53:14;99999.63;;;8.89;83.88
63439;BME280;49567;48.958;8.294;2022-11-20T08:55:39;99999.63;;;8.89;83.99
63439;BME280;49567;48.958;8.294;2022-11-20T08:58:06;99998.22;;;8.86;83.88
63439;BME280;49567;48.958;8.294;2022-11-20T09:00:32;100004.94;;;8.83;84.13
63439;BME280;49567;48.958;8.294;2022-11-20T09:02:57;99997.09;;;8.82;83.95
63439;BME280;49567;48.958;8.294;2022-11-20T09:05:24;100008.94;;;8.81;84.25
63439;BME280;49567;48.958;8.294;2022-11-20T09:07:49;100015.66;;;8.78;84.51
63439;BME280;49567;48.958;8.294;2022-11-20T09:10:14;100025.88;;;8.76;84.65
63439;BME280;49567;48.958;8.294;2022-11-20T09:12:39;100019.66;;;8.76;84.49
63439;BME280;49567;48.958;8.294;2022-11-20T09:15:05;100022.44;;;8.81;84.67
63439;BME280;49567;48.958;8.294;2022-11-20T09:17:30;100023.28;;;8.81;84.38
63439;BME280;49567;48.958;8.294;2022-11-20T09:19:56;100027.84;;;8.81;84.54
63439;BME280;49567;48.958;8.294;2022-11-20T09:22:21;100035.41;;;8.79;84.97
63439;BME280;49567;48.958;8.294;2022-11-20T09:24:46;100032.09;;;8.77;85.13
63439;BME280;49567;48.958;8.294;2022-11-20T09:27:11;100030.22;;;8.77;85.20
63439;BME280;49567;48.958;8.294;2022-11-20T09:29:37;100033.47;;;8.79;85.57
63439;BME280;49567;48.958;8.294;2022-11-20T09:32:02;100034.66;;;8.83;85.61
63439;BME280;49567;48.958;8.294;2022-11-20T09:34:27;100033.59;;;8.84;85.70
63439;BME280;49567;48.958;8.294;2022-11-20T09:36:53;100028.69;;;8.81;85.40
63439;BME280;49567;48.958;8.294;2022-11-20T09:39:18;100032.94;;;8.77;85.93
63439;BME280;49567;48.958;8.294;2022-11-20T09:42:01;100038.19;;;8.84;85.77
63439;BME280;49567;48.958;8.294;2022-11-20T09:47:31;100038.59;;;8.93;85.68
63439;BME280;49567;48.958;8.294;2022-11-20T09:50:15;100047.50;;;8.93;85.33
63439;BME280;49567;48.958;8.294;2022-11-20T09:55:16;100048.09;;;8.95;85.79
63439;BME280;49567;48.958;8.294;2022-11-20T09:57:44;100038.34;;;8.94;85.82
63439;BME280;49567;48.958;8.294;2022-11-20T10:00:12;100042.94;;;8.94;85.64
63439;BME280;49567;48.958;8.294;2022-11-20T10:05:29;100045.81;;;9.04;85.87
63439;BME280;49567;48.958;8.294;2022-11-20T10:08:16;100049.91;;;9.06;85.86
63439;BME280;49567;48.958;8.294;2022-11-20T10:10:50;100040.25;;;9.10;85.34
63439;BME280;49567;48.958;8.294;2022-11-20T10:15:56;100036.06;;;9.19;85.69
63439;BME280;49567;48.958;8.294;2022-11-20T10:23:55;100029.03;;;9.18;85.36
63439;BME280;49567;48.958;8.294;2022-11-20T10:29:11;100025.56;;;9.39;85.13
63439;BME280;49567;48.958;8.294;2022-11-20T10:31:40;100025.66;;;9.45;84.99
63439;BME280;49567;48.958;8.294;2022-11-20T10:36:47;100019.91;;;9.58;84.44
63439;BME280;49567;48.958;8.294;2022-11-20T10:39:21;100014.94;;;9.71;84.48
63439;BME280;49567;48.958;8.294;2022-11-20T10:41:50;100009.41;;;9.83;83.68
63439;BME280;49567;48.958;8.294;2022-11-20T10:44:20;100011.09;;;9.89;83.66
63439;BME280;49567;48.958;8.294;2022-11-20T10:47:08;100008.34;;;9.84;83.94
63439;BME280;49567;48.958;8.294;2022-11-20T10:49:35;99998.41;;;9.89;83.79
63439;BME280;49567;48.958;8.294;2022-11-20T10:55:17;99990.25;;;10.11;83.43
63439;BME280;49567;48.958;8.294;2022-11-20T11:00:36;99986.28;;;10.14;82.24
63439;BME280;49567;48.958;8.294;2022-11-20T11:03:02;99980.00;;;10.13;81.97
63439;BME280;49567;48.958;8.294;2022-11-20T11:05:49;99981.75;;;10.19;81.37
63439;BME280;49567;48.958;8.294;2022-11-20T11:08:17;99983.06;;;10.17;81.28
63439;BME280;49567;48.958;8.294;2022-11-20T11:10:57;99981.22;;;10.22;80.87
63439;BME280;49567;48.958;8.294;2022-11-20T11:13:28;99977.97;;;10.20;80.29
63439;BME280;49567;48.958;8.294;2022-11-20T11:15:54;99964.34;;;10.15;79.71
63439;BME280;49567;48.958;8.294;2022-11-20T11:20:54;99953.97;;;9.85;80.03
63439;BME280;49567;48.958;8.294;2022-11-20T11:23:30;99952.34;;;9.84;80.03
63439;BME280;49567;48.958;8.294;2022-11-20T11:25:58;99945.78;;;9.80;79.89
63439;BME280;49567;48.958;8.294;2022-11-20T11:28:25;99946.34;;;9.82;79.81
63439;BME280;49567;48.958;8.294;2022-11-20T11:30:52;99939.06;;;9.83;79.44
63439;BME280;49567;48.958;8.294;2022-11-20T11:33:21;99934.97;;;9.80;79.49
63439;BME280;49567;48.958;8.294;2022-11-20T11:35:48;99927.47;;;9.87;79.24
63439;BME280;49567;48.958;8.294;2022-11-20T11:38:21;99930.16;;;10.09;78.83
63439;BME280;49567;48.958;8.294;2022-11-20T11:40:46;99925.72;;;10.25;77.73
63439;BME280;49567;48.958;8.294;2022-11-20T11:43:36;99918.28;;;10.37;76.97
63439;BME280;49567;48.958;8.294;2022-11-20T11:51:36;99909.94;;;10.44;75.00
63439;BME280;49567;48.958;8.294;2022-11-20T11:54:16;99905.06;;;10.40;74.25
63439;BME280;49567;48.958;8.294;2022-11-20T11:56:44;99910.38;;;10.30;74.20
63439;BME280;49567;48.958;8.294;2022-11-20T11:59:15;99899.78;;;10.29;73.64
63439;BME280;49567;48.958;8.294;2022-11-20T12:01:52;99905.44;;;10.27;73.18
63439;BME280;49567;48.958;8.294;2022-11-20T12:04:46;99908.94;;;10.23;72.72
63439;BME280;49567;48.958;8.294;2022-11-20T12:07:20;99911.19;;;10.09;72.19
63439;BME280;49567;48.958;8.294;2022-11-20T12:09:50;99915.16;;;10.02;71.62
63439;BME280;49567;48.958;8.294;2022-11-20T12:12:19;99904.91;;;10.04;71.43
63439;BME280;49567;48.958;8.294;2022-11-20T12:14:47;99913.03;;;10.04;70.78
63439;BME280;49567;48.958;8.294;2022-11-20T12:17:15;99923.75;;;10.15;71.23
63439;BME280;49567;48.958;8.294;2022-11-20T12:19:41;99913.88;;;10.31;71.14
63439;BME280;49567;48.958;8.294;2022-11-20T12:25:08;99908.41;;;10.53;68.98
63439;BME280;49567;48.958;8.294;2022-11-20T12:30:40;99906.94;;;10.40;68.18
63439;BME280;49567;48.958;8.294;2022-11-20T12:36:12;99917.03;;;10.50;68.00
63439;BME280;49567;48.958;8.294;2022-11-20T12:39:20;99892.97;;;10.53;67.88
63439;BME280;49567;48.958;8.294;2022-11-20T12:42:16;99901.03;;;10.48;67.64
63439;BME280;49567;48.958;8.294;2022-11-20T12:56:43;99890.47;;;10.47;65.87
63439;BME280;49567;48.958;8.294;2022-11-20T13:02:23;99887.75;;;10.78;64.77
63439;BME280;49567;48.958;8.294;2022-11-20T13:05:19;99884.78;;;10.80;63.52
63439;BME280;49567;48.958;8.294;2022-11-20T13:07:47;99874.88;;;10.64;62.96
63439;BME280;49567;48.958;8.294;2022-11-20T13:10:25;99872.66;;;10.56;63.22
63439;BME280;49567;48.958;8.294;2022-11-20T13:13:01;99872.91;;;10.54;63.13
63439;BME280;49567;48.958;8.294;2022-11-20T13:15:40;99873.00;;;10.64;62.98
63439;BME280;49567;48.958;8.294;2022-11-20T13:18:11;99866.03;;;10.73;62.13
63439;BME280;49567;48.958;8.294;2022-11-20T13:20:42;99864.47;;;10.82;62.10
63439;BME280;49567;48.958;8.294;2022-11-20T13:23:08;99860.41;;;10.85;61.91
63439;BME280;49567;48.958;8.294;2022-11-20T13:25:35;99865.06;;;10.89;61.46
63439;BME280;49567;48.958;8.294;2022-11-20T13:30:47;99863.66;;;10.82;60.77
63439;BME280;49567;48.958;8.294;2022-11-20T13:33:27;99866.06;;;10.83;60.75
63439;BME280;49567;48.958;8.294;2022-11-20T13:36:05;99866.91;;;10.84;60.91
63439;BME280;49567;48.958;8.294;2022-11-20T13:38:48;99855.19;;;10.73;60.66
63439;BME280;49567;48.958;8.294;2022-11-20T13:41:35;99857.03;;;10.68;60.78
63439;BME280;49567;48.958;8.294;2022-11-20T13:44:10;99851.59;;;10.68;61.11
63439;BME280;49567;48.958;8.294;2022-11-20T13:46:46;99847.00;;;10.68;61.23
63439;BME280;49567;48.958;8.294;2022-11-20T13:49:20;99855.66;;;10.65;61.34
63439;BME280;49567;48.958;8.294;2022-11-20T13:51:50;99846.16;;;10.63;61.63
63439;BME280;49567;48.958;8.294;2022-11-20T13:57:33;99836.94;;;10.64;61.78
63439;BME280;49567;48.958;8.294;2022-11-20T14:00:29;99834.81;;;10.71;61.27
63439;BME280;49567;48.958;8.294;2022-11-20T14:03:37;99836.41;;;10.62;60.46
63439;BME280;49567;48.958;8.294;2022-11-20T14:06:02;99831.19;;;10.50;60.97
63439;BME280;49567;48.958;8.294;2022-11-20T14:08:45;99833.31;;;10.48;61.25
63439;BME280;49567;48.958;8.294;2022-11-20T14:11:19;99827.59;;;10.45;61.91
63439;BME280;49567;48.958;8.294;2022-11-20T14:13:57;99820.28;;;10.45;61.48
63439;BME280;49567;48.958;8.294;2022-11-20T14:16:25;99812.72;;;10.47;61.12
63439;BME280;49567;48.958;8.294;2022-11-20T14:18:51;99810.03;;;10.47;61.68
63439;BME280;49567;48.958;8.294;2022-11-20T14:21:25;99803.78;;;10.47;61.62
63439;BME280;49567;48.958;8.294;2022-11-20T14:23:53;99802.91;;;10.41;61.36
63439;BME280;49567;48.958;8.294;2022-11-20T14:26:18;99805.84;;;10.34;61.25
63439;BME280;49567;48.958;8.294;2022-11-20T14:28:49;99805.81;;;10.29;61.12